• Join FlightAware (Why Join?)
  • Login
  • US Flag 
12:14AM EDT


 

Airport Tracker/Info


-or-


 

Live Flight TrackerFlight Track Log ✈ CAV539 ✈ 16-Jun-2013 ✈ CYRT - CYCS

Flight Track Log - Related Links

Times and Time Zones

All times are in EDT time to prevent confusion due to time zone crossing. See the CAV539 flight status page for this flight to view local times or setup timezone preferences in your user account.

Time Position Orientation Groundspeed Altitude Reporting Facility
EDT Latitude Longitude Course Direction KTS MPH feet Rate Location/Type
06:59PM 63.0742 -92.7665 312° West  Level Estimated
07:00PM 63.1177 -92.8760 311° West  Level Estimated
07:01PM 63.1611 -92.9859 311° West  Level Estimated
07:02PM 63.2045 -93.0962 311° West  Level Estimated
07:03PM 63.2477 -93.2068 311° West  Level Estimated
07:04PM 63.2909 -93.3177 311° West  Level Estimated
07:05PM 63.3340 -93.4289 311° West  Level Estimated
07:06PM 63.3770 -93.5405 311° West  Level Estimated
07:07PM 63.4199 -93.6524 311° West  Level Estimated
07:08PM 63.4627 -93.7646 311° West  Level Estimated
07:09PM 63.5054 -93.8772 310° West  Level Estimated
07:10PM 63.5481 -93.9901 310° West  Level Estimated
07:11PM 63.5906 -94.1033 310° West  Level Estimated
07:12PM 63.6331 -94.2169 310° West  Level Estimated
07:13PM 63.6754 -94.3308 310° West  Level Estimated
07:14PM 63.7177 -94.4451 310° West  Level Estimated
07:15PM 63.7599 -94.5596 310° West  Level Estimated
07:16PM 63.8020 -94.6746 310° West  Level Estimated
07:17PM 63.8440 -94.7899 310° West  Level Estimated
07:18PM 63.8859 -94.9055 310° West  Level Estimated
07:19PM 63.9278 -95.0215 309° West  Level Estimated
07:20PM 63.9695 -95.1378 309° West  Level Estimated
07:21PM 64.0111 -95.2545 309° West  Level Estimated
07:22PM 64.0527 -95.3715 309° West  Level Estimated
07:23PM 64.0941 -95.4889 309° West  Level Estimated
07:24PM 64.1355 -95.6066 309° West  Level Estimated
07:25PM 64.1768 -95.7247 309° West  Level Estimated
07:26PM 64.2179 -95.8431 309° West  Level Estimated
07:27PM 64.2590 -95.9619 309° West  Level Estimated
07:28PM 64.2989 -96.0778 308° West  Level Estimated
07:29PM 64.2989 -96.0778 139° Southeast  Level Estimated
07:30PM 64.2989 -96.0778 139° Southeast  Level Estimated
07:31PM 64.2989 -96.0778 139° Southeast  Level Estimated
07:32PM 64.2989 -96.0778 139° Southeast  Level Estimated
07:33PM 64.2989 -96.0778 139° Southeast  Level Estimated
07:34PM 64.2989 -96.0778 139° Southeast  Level Estimated
07:35PM 64.2989 -96.0778 139° Southeast  Level Estimated
07:36PM 64.2989 -96.0778 139° Southeast  Level Estimated
07:37PM 64.2989 -96.0778 139° Southeast  Level Estimated
07:38PM 64.2989 -96.0778 139° Southeast  Level Estimated
07:39PM 64.2989 -96.0778 139° Southeast  Level Estimated
07:40PM 64.2989 -96.0778 139° Southeast  Level Estimated
07:41PM 64.2989 -96.0778 139° Southeast  Level Estimated
07:42PM 64.2989 -96.0778 139° Southeast  Level Estimated
07:43PM 64.2989 -96.0778 139° Southeast  Level Estimated
07:44PM 64.2989 -96.0778 139° Southeast  Level Estimated